Time;durP1;ratioP1;P1;durP2;ratioP2;P2;SDS_P1;SDS_P2;PMS_P1;PMS_P2;Temp;Humidity;BMP_temperature;BMP_pressure;BME280_temperature;BME280_humidity;BME280_pressure;Samples;Min_cycle;Max_cycle;Signal;HPM_P1;HPM_P2
2022/01/11 00:00:37;;;;;;;55.95;25.58;;;2.60;57.60;;;0.40;64.22;102866.78;8222789;28;20045;-84
2022/01/11 00:05:18;;;;;;;48.25;23.92;;;2.50;57.60;;;0.54;64.12;102879.94;8218367;28;20049;-83
2022/01/11 00:09:42;;;;;;;51.53;26.05;;;2.50;57.80;;;0.60;64.56;102891.22;8204044;28;20500;-84
2022/01/11 00:14:03;;;;;;;55.30;27.13;;;2.50;57.80;;;0.64;64.13;102900.72;8213058;28;20134;-83
2022/01/11 00:18:26;;;;;;;58.95;27.48;;;2.50;57.90;;;0.60;64.08;102903.22;8214122;28;20046;-83
2022/01/11 00:27:22;;;;;;;63.80;28.95;;;2.40;57.80;;;0.24;64.44;102877.56;8216674;28;20031;-83
2022/01/11 00:31:46;;;;;;;62.45;27.30;;;2.40;57.80;;;0.43;64.33;102908.88;8214894;28;20049;-84
2022/01/11 00:36:11;;;;;;;56.85;27.60;;;2.30;57.80;;;0.33;64.56;102912.06;8213624;28;20046;-83
2022/01/11 00:40:33;;;;;;;57.38;28.95;;;2.40;57.90;;;0.44;64.51;102933.72;8214481;28;20045;-83
2022/01/11 00:44:55;;;;;;;68.32;33.92;;;2.40;58.00;;;0.40;64.18;102923.34;8196150;28;20039;-83
2022/01/11 00:49:17;;;;;;;54.90;25.88;;;2.20;58.00;;;0.42;64.23;102929.38;8204240;28;20700;-83
2022/01/11 00:53:40;;;;;;;60.42;26.60;;;2.30;58.00;;;0.30;64.13;102906.84;8192595;28;20114;-83
2022/01/11 00:58:03;;;;;;;57.72;26.13;;;2.20;58.00;;;0.36;64.32;102924.97;8209342;28;20233;-83
2022/01/11 01:02:25;;;;;;;55.60;25.27;;;2.20;57.90;;;0.30;64.48;102922.28;8202583;28;20500;-84
2022/01/11 01:06:47;;;;;;;55.33;25.27;;;2.30;58.00;;;0.21;64.21;102909.19;8206692;28;20030;-83
2022/01/11 01:11:10;;;;;;;54.88;24.42;;;2.30;58.10;;;0.32;64.50;102940.28;8192808;28;20035;-83
2022/01/11 01:15:39;;;;;;;59.38;27.83;;;2.20;58.00;;;0.33;64.51;102936.91;8205772;28;20041;-83
2022/01/11 01:20:13;;;;;;;47.45;23.73;;;2.30;58.20;;;0.38;64.59;102951.59;8201749;28;20085;-83
2022/01/11 01:24:35;;;;;;;53.38;24.73;;;2.30;58.10;;;0.46;64.34;102969.75;8193871;28;20125;-83
2022/01/11 01:28:59;;;;;;;52.28;23.73;;;2.20;58.10;;;0.13;64.44;102914.16;8176515;28;20551;-83
2022/01/11 01:33:21;;;;;;;55.05;23.90;;;2.40;58.10;;;0.25;64.42;102944.41;8196594;28;20449;-83
2022/01/11 01:37:44;;;;;;;60.40;25.95;;;2.30;58.00;;;0.25;64.58;102962.41;8207607;28;20047;-83
2022/01/11 01:42:08;;;;;;;63.88;28.40;;;2.20;57.90;;;0.20;64.68;102957.16;8196106;28;20053;-83
2022/01/11 01:46:30;;;;;;;57.78;23.02;;;2.30;58.00;;;0.23;64.69;102979.47;8193353;28;20571;-83
2022/01/11 01:50:52;;;;;;;81.65;33.70;;;2.00;57.90;;;0.14;64.81;102986.97;8194071;28;20041;-84
2022/01/11 01:55:14;;;;;;;62.47;25.42;;;2.20;58.10;;;0.13;64.93;102990.34;8181665;28;20043;-83
2022/01/11 01:59:36;;;;;;;64.15;26.65;;;2.20;58.10;;;0.04;64.56;102985.88;8207060;28;20049;-83
2022/01/11 02:03:58;;;;;;;59.90;23.95;;;1.90;58.00;;;0.02;64.75;102995.22;8184891;28;20130;-83
2022/01/11 02:08:20;;;;;;;59.42;25.17;;;2.10;58.10;;;0.06;64.86;103009.91;8206553;28;20149;-83
2022/01/11 02:12:43;;;;;;;59.25;22.95;;;2.00;58.20;;;-0.01;64.63;103003.72;8201800;28;20039;-83
2022/01/11 02:17:04;;;;;;;60.90;25.13;;;2.00;58.10;;;-0.05;64.58;102989.09;8203905;28;20074;-83
2022/01/11 02:21:26;;;;;;;59.15;24.63;;;2.00;58.20;;;0.02;64.61;102990.09;8201286;28;20037;-83
2022/01/11 02:25:50;;;;;;;55.40;22.20;;;2.00;58.30;;;-0.02;64.64;102990.84;8178432;28;20041;-83
2022/01/11 02:30:12;;;;;;;79.93;32.90;;;2.10;58.30;;;0.01;64.59;102990.94;8218556;28;20046;-83
2022/01/11 02:34:34;;;;;;;53.03;23.42;;;2.10;58.60;;;0.01;64.73;102987.50;8210220;28;20547;-83
2022/01/11 02:39:00;;;;;;;;;;;2.00;58.30;;;0.10;64.74;103010.84;8203172;28;20141;-83
2022/01/11 02:43:22;;;;;;;42.28;18.52;;;2.00;58.40;;;-0.23;64.89;102965.50;8181428;28;20201;-83
2022/01/11 02:47:46;;;;;;;48.88;22.15;;;2.10;58.30;;;0.17;64.77;103023.88;8205985;28;20042;-83
2022/01/11 02:52:08;;;;;;;42.33;18.27;;;2.00;58.30;;;0.08;64.70;103013.38;8207489;28;20035;-83
2022/01/11 02:56:31;;;;;;;41.08;17.25;;;2.10;58.60;;;0.12;64.75;103015.19;8215651;28;20154;-83
2022/01/11 03:00:54;;;;;;;46.78;18.92;;;2.00;58.30;;;0.25;64.83;103026.63;8203134;28;20392;-83
2022/01/11 03:05:16;;;;;;;40.08;17.85;;;2.20;58.40;;;0.26;64.88;103022.38;8215741;28;20449;-83
2022/01/11 03:09:55;;;;;;;39.10;17.42;;;2.10;58.30;;;0.26;64.74;103022.38;8194235;28;20035;-82
2022/01/11 03:14:17;;;;;;;38.53;16.77;;;2.20;58.30;;;0.28;64.76;103031.00;8225143;28;20118;-83
2022/01/11 03:18:39;;;;;;;41.10;17.42;;;2.30;58.30;;;0.30;64.82;103027.63;8216312;28;20037;-83
2022/01/11 03:23:03;;;;;;;34.15;14.23;;;2.30;58.30;;;0.31;64.85;103036.19;8217554;28;20403;-83
2022/01/11 03:27:25;;;;;;;42.13;17.83;;;2.30;58.20;;;0.39;64.86;103048.41;8184214;28;20039;-83
2022/01/11 03:31:48;;;;;;;35.55;15.38;;;2.40;58.30;;;0.43;65.08;103047.66;8217237;28;20042;-83
2022/01/11 03:36:11;;;;;;;35.17;15.57;;;2.20;58.20;;;0.49;64.85;103049.50;8183084;28;20043;-83
2022/01/11 03:40:34;;;;;;;34.17;13.40;;;2.40;58.30;;;0.31;64.88;103021.66;8197254;28;20564;-83
2022/01/11 03:44:58;;;;;;;30.05;13.25;;;2.40;58.30;;;0.33;64.69;103024.25;8212995;28;20208;-83
2022/01/11 03:49:20;;;;;;;38.55;16.13;;;2.50;58.30;;;0.51;64.85;103046.94;8198115;28;20053;-83
2022/01/11 03:53:54;;;;;;;31.90;14.00;;;2.50;58.30;;;0.59;64.56;103068.56;8201846;28;20042;-83
2022/01/11 03:58:20;;;;;;;35.00;14.70;;;2.50;58.20;;;0.53;64.75;103050.44;8203387;28;20043;-83
2022/01/11 04:02:43;;;;;;;30.98;13.75;;;2.50;58.20;;;0.62;64.67;103045.50;8184516;28;20039;-83
2022/01/11 04:07:10;;;;;;;42.15;19.60;;;2.40;58.10;;;0.53;64.81;103037.59;8191070;28;20133;-82
2022/01/11 04:11:32;;;;;;;50.38;19.58;;;2.60;58.20;;;0.50;64.84;103034.94;8206536;28;20045;-83
2022/01/11 04:15:54;;;;;;;40.88;16.17;;;2.60;58.20;;;0.66;65.06;103075.59;8202647;28;20218;-83
2022/01/11 04:20:19;;;;;;;37.55;16.15;;;2.50;58.10;;;0.64;64.87;103075.56;8205886;28;20488;-83
2022/01/11 04:24:41;;;;;;;35.90;14.13;;;2.70;58.20;;;0.57;64.65;103063.41;8200987;28;20045;-83
2022/01/11 04:29:03;;;;;;;36.08;15.15;;;2.60;58.20;;;0.57;64.62;103065.13;8205270;28;20039;-83
2022/01/11 04:33:29;;;;;;;43.35;17.42;;;2.60;58.10;;;0.55;64.63;103069.34;8203573;28;20049;-83
2022/01/11 04:37:51;;;;;;;39.00;16.38;;;2.60;58.10;;;0.59;64.78;103082.28;8195864;28;20446;-83
2022/01/11 04:42:14;;;;;;;36.38;14.93;;;2.70;58.10;;;0.49;64.90;103066.59;8187894;28;20082;-83
2022/01/11 04:46:37;;;;;;;36.63;15.30;;;2.60;58.10;;;0.60;64.64;103088.31;8193957;28;20046;-83
2022/01/11 04:51:02;;;;;;;41.17;17.20;;;2.50;58.00;;;0.59;64.70;103087.44;8198491;28;20496;-83
2022/01/11 04:55:25;;;;;;;39.13;17.75;;;2.50;58.00;;;0.62;64.75;103084.06;8199986;28;20129;-82
2022/01/11 04:59:48;;;;;;;44.05;18.23;;;2.50;58.10;;;0.68;64.86;103084.22;8203055;28;20497;-83
2022/01/11 05:04:11;;;;;;;39.60;14.00;;;2.60;58.10;;;0.60;64.80;103070.31;8184393;28;20035;-83
2022/01/11 05:08:33;;;;;;;29.85;13.73;;;2.40;58.00;;;0.53;65.00;103055.56;8188336;28;20039;-83
2022/01/11 05:12:58;;;;;;;37.33;17.33;;;2.40;58.10;;;0.66;64.73;103091.03;8176698;28;20436;-83
2022/01/11 05:17:20;;;;;;;31.30;14.32;;;2.60;58.10;;;0.71;65.10;103099.72;8173960;28;20644;-83
2022/01/11 05:21:42;;;;;;;37.05;15.27;;;2.70;58.10;;;0.72;64.52;103114.31;8182985;28;20053;-83
2022/01/11 05:26:04;;;;;;;37.33;17.75;;;2.60;58.00;;;0.63;64.87;103107.25;8176137;29;20408;-83
2022/01/11 05:30:27;;;;;;;34.58;13.38;;;2.60;57.90;;;0.72;64.80;103116.03;8188998;28;20035;-83
2022/01/11 05:34:49;;;;;;;33.72;14.45;;;2.60;57.90;;;0.60;64.79;103099.47;8189805;28;20038;-83
2022/01/11 05:39:12;;;;;;;33.83;13.85;;;2.60;58.00;;;0.57;64.76;103083.09;8199426;28;20045;-83
2022/01/11 05:43:35;;;;;;;34.05;13.82;;;2.50;58.00;;;0.63;64.90;103091.81;8208215;28;20035;-83
2022/01/11 05:47:58;;;;;;;30.15;12.52;;;2.70;58.00;;;0.70;64.96;103108.25;8192532;28;20510;-83
2022/01/11 05:52:20;;;;;;;36.97;16.50;;;2.70;58.00;;;0.64;64.83;103105.53;8186632;28;20039;-83
2022/01/11 05:56:42;;;;;;;39.53;16.05;;;2.70;58.00;;;0.61;64.81;103100.34;8181822;28;20126;-83
2022/01/11 06:01:04;;;;;;;26.85;12.63;;;2.70;57.80;;;0.61;64.67;103098.63;8191619;28;20133;-83
2022/01/11 06:05:26;;;;;;;32.25;12.95;;;2.60;57.80;;;0.68;64.75;103130.50;8187865;28;20046;-83
2022/01/11 06:09:47;;;;;;;27.00;11.85;;;2.70;57.90;;;0.69;64.71;103137.38;8174251;28;20464;-83
2022/01/11 06:14:10;;;;;;;26.83;12.90;;;2.60;58.20;;;0.57;64.77;103111.38;8204721;28;20129;-83
2022/01/11 06:18:32;;;;;;;26.23;12.15;;;2.90;58.00;;;0.69;64.94;103139.94;8203499;28;20084;-82
2022/01/11 06:23:10;;;;;;;24.35;12.30;;;2.70;57.90;;;0.69;64.70;103139.09;8203909;28;20039;-83
2022/01/11 06:27:33;;;;;;;26.02;12.20;;;2.70;57.90;;;0.72;64.69;103141.72;8201927;28;20054;-84
2022/01/11 06:31:55;;;;;;;28.67;12.40;;;2.70;57.90;;;0.85;64.62;103165.22;8205792;28;20400;-83
2022/01/11 06:36:18;;;;;;;22.58;11.40;;;2.60;58.20;;;0.73;64.61;103153.75;8182433;28;20039;-83
2022/01/11 06:40:42;;;;;;;29.80;14.00;;;2.70;57.90;;;0.64;64.41;103154.38;8185669;28;20047;-83
2022/01/11 06:45:06;;;;;;;27.13;14.20;;;2.70;57.80;;;0.62;64.57;103156.94;8192002;28;20522;-83
2022/01/11 06:49:29;;;;;;;33.55;14.07;;;2.70;57.80;;;0.80;64.48;103192.53;8188837;28;20031;-83
2022/01/11 06:53:51;;;;;;;29.50;13.10;;;2.80;57.80;;;0.73;64.63;103175.22;8181047;28;20412;-83
2022/01/11 06:58:13;;;;;;;29.50;12.20;;;2.70;57.80;;;0.75;64.65;103180.38;8184434;28;20545;-83
2022/01/11 07:02:35;;;;;;;25.20;11.75;;;2.70;57.80;;;0.73;64.72;103185.50;8174990;28;20547;-84
2022/01/11 07:07:17;;;;;;;31.73;14.07;;;2.70;57.80;;;0.77;64.51;103194.16;8175655;28;20050;-87
2022/01/11 07:11:40;;;;;;;25.50;11.20;;;2.80;57.80;;;0.85;64.73;103211.50;8194610;28;20043;-85
2022/01/11 07:16:02;;;;;;;28.40;13.65;;;2.70;57.70;;;0.68;64.76;103181.94;8194708;28;20138;-85
2022/01/11 07:20:25;;;;;;;29.55;13.13;;;2.80;57.70;;;0.74;64.62;103188.94;8197819;28;20576;-85
2022/01/11 07:24:47;;;;;;;27.63;13.40;;;2.70;57.60;;;0.74;64.60;103197.50;8173791;28;20047;-83
2022/01/11 07:29:12;;;;;;;38.63;16.55;;;2.70;57.60;;;0.71;64.43;103215.44;8193828;28;20126;-86
2022/01/11 07:33:34;;;;;;;29.92;14.50;;;2.50;57.80;;;0.62;64.67;103204.91;8204952;28;20511;-87
2022/01/11 07:37:55;;;;;;;29.38;14.05;;;2.70;57.60;;;0.56;64.46;103197.03;8197517;28;20055;-84
2022/01/11 07:42:17;;;;;;;30.13;13.35;;;2.60;57.60;;;0.61;64.64;103213.44;8189541;28;20397;-87
2022/01/11 07:47:04;;;;;;;22.92;11.95;;;2.60;57.70;;;0.69;64.64;103229.09;8183247;28;20059;-88
2022/01/11 07:51:30;;;;;;;22.27;11.68;;;2.50;57.70;;;0.72;64.42;103244.59;8199521;28;20035;-88
2022/01/11 07:55:55;;;;;;;27.33;12.15;;;2.60;57.70;;;0.61;64.83;103216.03;8193820;28;20123;-86
2022/01/11 08:00:18;;;;;;;29.35;13.57;;;2.60;57.70;;;0.56;64.72;103223.59;8191287;28;20039;-88
2022/01/11 08:04:45;;;;;;;23.25;11.48;;;2.60;57.60;;;0.64;64.55;103242.66;8176565;28;20049;-87
2022/01/11 08:09:08;;;;;;;22.98;10.32;;;2.60;57.60;;;0.68;64.89;103250.50;8217791;28;20464;-86
2022/01/11 08:13:30;;;;;;;22.98;10.88;;;2.60;58.00;;;0.64;64.66;103237.53;8219167;28;20391;-86
2022/01/11 08:17:53;;;;;;;23.63;11.40;;;2.60;57.70;;;0.71;64.75;103246.28;8210202;28;20109;-86
2022/01/11 08:22:18;;;;;;;23.13;12.32;;;2.70;57.80;;;0.77;64.72;103263.59;8209073;28;20049;-86
2022/01/11 08:26:48;;;;;;;21.80;10.60;;;2.70;57.70;;;0.66;64.66;103232.44;8189059;28;20070;-86
2022/01/11 08:31:11;;;;;;;22.63;10.93;;;2.70;57.70;;;0.75;64.56;103250.66;8186580;28;20500;-85
2022/01/11 08:35:39;;;;;;;28.20;12.45;;;2.70;57.70;;;0.80;64.62;103256.81;8189553;28;20060;-85
2022/01/11 08:40:06;;;;;;;24.80;11.45;;;2.70;57.70;;;0.69;64.51;103244.50;8194965;28;20043;-85
2022/01/11 08:44:28;;;;;;;26.38;11.43;;;2.80;57.70;;;0.86;64.82;103266.38;8191410;28;20504;-86
2022/01/11 08:48:52;;;;;;;25.67;12.68;;;2.80;57.80;;;0.84;64.88;103261.22;8193071;28;20046;-86
2022/01/11 08:53:14;;;;;;;28.98;14.02;;;2.80;57.80;;;0.88;64.38;103263.03;8187436;28;20072;-86
2022/01/11 08:57:37;;;;;;;25.23;12.18;;;2.70;57.70;;;0.84;64.62;103253.50;8180769;28;20140;-85
2022/01/11 09:02:02;;;;;;;25.27;12.23;;;2.80;57.60;;;0.83;64.50;103258.59;8178269;28;20043;-86
2022/01/11 09:06:26;;;;;;;26.08;13.65;;;2.80;57.50;;;0.88;64.64;103268.16;8196843;28;20043;-86
2022/01/11 09:10:50;;;;;;;26.92;13.25;;;2.80;57.50;;;0.95;64.44;103296.66;8194405;28;20043;-86
2022/01/11 09:15:14;;;;;;;20.52;11.43;;;2.80;57.50;;;0.91;64.59;103295.69;8191152;28;20042;-86
2022/01/11 09:19:37;;;;;;;21.42;11.18;;;2.80;57.50;;;0.16;64.83;103162.56;8206461;28;20043;-86
2022/01/11 09:24:02;;;;;;;20.77;11.00;;;3.20;57.70;;;0.87;64.38;103275.88;8187531;28;20049;-86
2022/01/11 09:28:28;;;;;;;29.35;14.73;;;2.80;57.60;;;0.88;64.77;103275.88;8196135;28;20084;-86
2022/01/11 09:32:49;;;;;;;24.90;11.18;;;2.90;57.50;;;1.02;64.61;103295.97;8172536;28;20034;-86
2022/01/11 09:37:13;;;;;;;25.85;12.48;;;2.90;57.60;;;0.93;64.58;103272.56;8203366;28;20049;-86
2022/01/11 09:41:35;;;;;;;28.48;12.82;;;2.90;57.60;;;0.89;64.77;103258.75;8202480;28;20042;-86
2022/01/11 09:45:59;;;;;;;32.92;15.27;;;3.00;57.60;;;0.53;64.42;103194.38;8193964;28;20042;-86
2022/01/11 09:50:21;;;;;;;24.75;12.48;;;2.80;57.20;;;1.09;64.76;103273.00;8179628;28;20038;-86
2022/01/11 09:54:55;;;;;;;27.67;13.60;;;3.00;57.40;;;0.98;64.53;103240.13;8183554;28;20038;-86
2022/01/11 09:59:18;;;;;;;23.23;11.75;;;3.00;57.20;;;1.08;64.41;103260.97;8179631;28;20041;-86
2022/01/11 10:04:29;;;;;;;29.08;13.70;;;3.10;57.40;;;1.22;64.87;103274.19;8199200;28;20049;-86
2022/01/11 10:09:22;;;;;;;22.58;11.32;;;3.10;57.20;;;0.95;64.68;103219.47;8199823;28;20550;-86
2022/01/11 10:13:44;;;;;;;23.80;11.82;;;3.10;57.20;;;1.23;64.41;103247.59;8189763;28;20035;-86
2022/01/11 10:18:36;;;;;;;21.90;11.18;;;3.20;57.40;;;1.30;64.59;103231.50;8191761;28;20133;-86
2022/01/11 10:23:07;;;;;;;23.00;11.25;;;3.20;57.50;;;1.43;64.68;103236.91;8204104;28;20138;-86
2022/01/11 10:27:37;;;;;;;21.95;10.48;;;3.30;57.50;;;1.57;64.54;103245.84;8174457;28;20035;-86
2022/01/11 10:32:10;;;;;;;21.20;10.68;;;3.40;57.50;;;1.49;64.59;103211.31;8194422;28;20049;-85
2022/01/11 10:36:46;;;;;;;22.15;10.90;;;3.50;57.50;;;1.76;64.65;103241.97;8191752;28;20031;-87
2022/01/11 10:41:10;;;;;;;20.20;10.70;;;3.60;57.20;;;1.72;64.55;103227.28;8184504;28;20126;-86
2022/01/11 10:45:43;;;;;;;25.45;12.10;;;3.70;57.40;;;1.89;64.56;103248.25;8202236;28;20041;-87
2022/01/11 10:50:37;;;;;;;25.85;12.00;;;3.80;57.60;;;1.96;64.73;103244.97;8185339;28;20133;-86
2022/01/11 10:55:03;;;;;;;23.42;12.02;;;3.90;57.20;;;2.03;64.63;103262.31;8186213;29;20114;-86
2022/01/11 10:59:25;;;;;;;21.73;10.93;;;3.90;57.00;;;2.05;64.65;103272.63;8200270;28;20125;-87
2022/01/11 11:03:48;;;;;;;21.60;11.38;;;4.00;56.90;;;2.07;64.89;103264.09;8209707;28;20658;-87
2022/01/11 11:08:16;;;;;;;22.08;10.52;;;4.00;57.00;;;1.97;64.73;103236.38;8197778;28;20113;-92
2022/01/11 11:12:54;;;;;;;23.27;11.90;;;4.00;56.80;;;2.09;64.47;103251.25;8175714;28;20600;-95
2022/01/11 11:17:30;;;;;;;22.33;10.63;;;4.00;56.60;;;2.15;64.54;103266.84;8203118;28;20957;-85
2022/01/11 11:21:54;;;;;;;21.88;11.40;;;4.10;56.70;;;2.00;64.12;103228.75;8213649;28;20138;-87
2022/01/11 11:26:18;;;;;;;24.30;12.10;;;4.40;56.60;;;2.11;64.04;103240.16;8217891;28;20123;-89
2022/01/11 11:30:41;;;;;;;21.02;11.88;;;4.10;56.40;;;2.08;64.53;103229.78;8208324;28;20041;-84
2022/01/11 11:35:03;;;;;;;23.70;12.48;;;4.10;56.50;;;2.21;64.10;103241.19;8183990;28;20134;-85
2022/01/11 11:39:26;;;;;;;27.83;12.85;;;4.10;56.20;;;2.11;64.11;103223.81;8198823;28;20121;-88
2022/01/11 11:44:28;;;;;;;27.50;12.75;;;4.20;56.40;;;2.06;64.43;103220.28;8204669;28;20115;-88
2022/01/11 11:48:56;;;;;;;23.83;12.13;;;4.20;56.30;;;2.26;64.35;103238.72;8132879;29;20039;-84
2022/01/11 11:53:23;;;;;;;23.65;11.75;;;4.20;56.40;;;2.32;63.98;103249.13;8159177;28;20057;-85
2022/01/11 11:57:51;;;;;;;24.27;12.32;;;4.10;56.40;;;2.30;64.33;103230.22;8210879;28;20130;-83
2022/01/11 12:02:12;;;;;;;25.95;12.23;;;4.30;56.20;;;2.38;63.95;103232.09;8203069;28;20526;-83
2022/01/11 12:06:34;;;;;;;21.95;10.93;;;4.30;56.30;;;2.43;64.32;103232.16;8205049;28;20122;-82
2022/01/11 12:11:02;;;;;;;23.75;12.40;;;4.30;56.30;;;2.43;63.89;103227.00;8200048;28;20054;-83
2022/01/11 12:15:34;;;;;;;23.92;11.35;;;4.40;56.20;;;2.53;64.23;103234.06;8190660;28;20595;-86
2022/01/11 12:19:56;;;;;;;27.35;13.57;;;4.40;56.20;;;2.53;63.81;103228.06;8210347;28;20571;-85
2022/01/11 12:24:49;;;;;;;25.05;11.88;;;4.30;55.80;;;2.43;63.81;103207.25;8166301;28;20122;-87
2022/01/11 12:29:12;;;;;;;22.73;12.10;;;4.40;56.20;;;2.63;64.03;103240.28;8208340;28;20129;-84
2022/01/11 12:33:48;;;;;;;18.80;9.68;;;4.40;56.10;;;2.58;63.90;103216.97;8216311;28;20037;-86
2022/01/11 12:38:09;;;;;;;21.20;9.63;;;4.50;56.20;;;2.68;63.72;103232.66;8182265;28;20027;-87
2022/01/11 12:42:33;;;;;;;20.40;10.73;;;4.60;56.30;;;2.65;64.01;103218.84;8175065;28;20126;-88
2022/01/11 12:46:59;;;;;;;24.35;11.07;;;4.40;56.10;;;2.59;63.87;103213.59;8204011;28;20049;-88
2022/01/11 12:51:47;;;;;;;16.40;8.55;;;4.70;56.30;;;2.75;64.15;103226.72;8199595;28;20073;-83
2022/01/11 12:56:09;;;;;;;18.55;9.25;;;4.70;56.10;;;2.68;63.87;103206.84;8193397;28;20486;-86
2022/01/11 13:00:31;;;;;;;20.33;9.75;;;4.70;56.20;;;2.86;63.77;103230.34;8181240;28;20139;-85
2022/01/11 13:05:06;;;;;;;15.20;8.65;;;4.60;55.90;;;2.84;63.66;103230.34;8192983;28;20130;-86
2022/01/11 13:09:28;;;;;;;25.98;11.82;;;4.80;56.00;;;2.90;63.93;103229.59;8190235;28;20226;-85
2022/01/11 13:14:17;;;;;;;28.38;12.15;;;4.80;55.30;;;2.75;63.71;103214.69;8182439;28;20525;-86
2022/01/11 13:18:38;;;;;;;22.23;9.98;;;4.70;55.00;;;2.75;63.72;103204.38;8185250;28;20493;-86
2022/01/11 13:27:53;;;;;;;15.75;8.85;;;4.80;55.40;;;2.85;63.38;103198.53;8199470;28;20043;-86
2022/01/11 13:32:14;;;;;;;22.10;11.10;;;4.80;55.60;;;2.94;63.52;103215.88;8191509;28;20061;-86
2022/01/11 13:36:44;;;;;;;17.20;9.40;;;4.80;54.90;;;2.93;63.47;103196.09;8185848;29;20039;-86
2022/01/11 13:41:07;;;;;;;19.77;10.50;;;4.80;55.10;;;2.84;63.34;103190.78;8176954;28;20045;-86
2022/01/11 13:45:37;;;;;;;32.22;15.57;;;4.70;55.00;;;2.84;63.21;103199.38;8185584;28;20043;-86
2022/01/11 13:49:59;;;;;;;21.75;10.38;;;4.80;54.60;;;2.90;63.26;103208.94;8196239;28;20564;-85
2022/01/11 13:54:27;;;;;;;23.77;10.98;;;4.80;55.30;;;2.91;63.17;103208.09;8195651;28;20043;-86
2022/01/11 13:58:53;;;;;;;17.52;9.10;;;4.80;55.20;;;2.86;63.29;103196.81;8201184;28;20118;-86
2022/01/11 14:03:20;;;;;;;20.23;10.27;;;4.70;55.30;;;2.88;62.88;103203.75;8190741;28;20043;-85
2022/01/11 14:07:53;;;;;;;17.85;10.30;;;4.80;55.30;;;2.84;63.31;103191.66;8167153;28;20038;-84
2022/01/11 14:12:25;;;;;;;17.17;8.60;;;4.80;55.40;;;2.77;63.19;103178.63;8181927;28;20065;-86
2022/01/11 14:16:47;;;;;;;17.85;8.40;;;4.80;55.30;;;2.85;63.02;103195.94;8206684;28;20552;-87
2022/01/11 14:21:12;;;;;;;20.90;8.27;;;4.80;55.50;;;2.77;63.17;103176.03;8181009;28;20730;-86
2022/01/11 14:25:39;;;;;;;18.73;9.38;;;4.60;55.50;;;2.77;63.01;103179.47;8217385;28;20464;-86
2022/01/11 14:30:08;;;;;;;18.17;9.38;;;4.80;55.60;;;2.72;63.02;103188.84;8183323;28;20035;-86
2022/01/11 14:34:32;;;;;;;14.52;8.70;;;4.70;55.40;;;2.81;63.21;103203.63;8193166;28;20036;-87
2022/01/11 14:39:04;;;;;;;16.00;8.13;;;5.00;55.70;;;2.73;62.96;103188.03;8176860;28;20568;-87
2022/01/11 14:43:25;;;;;;;18.30;8.75;;;4.70;55.70;;;2.78;63.02;103193.25;8180577;28;20035;-85
2022/01/11 14:47:54;;;;;;;15.48;8.05;;;4.70;55.80;;;2.78;63.37;103200.97;8203848;28;20130;-86
2022/01/11 14:52:20;;;;;;;15.50;8.10;;;4.60;55.60;;;2.78;63.10;103213.88;8179639;28;20493;-84
2022/01/11 14:56:44;;;;;;;15.75;8.05;;;4.70;55.70;;;2.65;62.97;103193.03;8183471;28;20031;-85
2022/01/11 15:01:17;;;;;;;16.60;8.20;;;4.70;55.80;;;2.72;63.04;103211.19;8197406;28;20147;-85
2022/01/11 15:05:38;;;;;;;16.08;8.00;;;4.70;55.80;;;2.59;62.96;103187.78;8196567;28;20127;-84
2022/01/11 15:10:00;;;;;;;15.30;8.80;;;4.70;55.90;;;2.65;62.98;103208.53;8175208;28;20067;-84
2022/01/11 15:14:34;;;;;;;18.17;8.90;;;4.60;55.90;;;2.61;63.21;103198.97;8188025;28;20305;-84
2022/01/11 15:18:55;;;;;;;18.50;9.25;;;4.60;55.90;;;2.71;63.28;103222.38;8191176;28;20045;-84
2022/01/11 15:23:17;;;;;;;18.20;9.38;;;4.60;55.80;;;2.66;63.07;103218.00;8187491;28;20053;-84
2022/01/11 15:27:41;;;;;;;20.42;9.48;;;4.50;55.70;;;2.56;63.22;103210.91;8185276;28;20041;-84
2022/01/11 15:32:04;;;;;;;20.40;10.52;;;4.50;55.80;;;2.58;62.92;103208.38;8197686;28;20125;-85
2022/01/11 15:36:26;;;;;;;23.05;11.38;;;4.50;55.90;;;2.52;63.20;103196.25;8200425;28;20145;-85
2022/01/11 15:40:48;;;;;;;28.00;12.23;;;4.40;55.80;;;2.52;63.01;103211.72;8206083;28;20114;-85
2022/01/11 15:45:09;;;;;;;26.58;11.40;;;4.40;55.70;;;2.35;63.10;103205.34;8200482;28;20130;-85
2022/01/11 15:49:31;;;;;;;24.30;11.70;;;4.30;55.80;;;2.35;62.63;103215.66;8196881;28;20121;-84
2022/01/11 15:53:53;;;;;;;20.65;11.27;;;4.20;55.90;;;2.24;63.00;103209.44;8202903;28;20045;-84
2022/01/11 15:58:14;;;;;;;22.70;11.63;;;4.20;56.00;;;2.23;63.19;103213.72;8217581;28;20054;-85
2022/01/11 16:02:36;;;;;;;23.20;12.57;;;4.10;56.00;;;2.34;62.93;103240.59;8192127;28;20117;-84
2022/01/11 16:06:58;;;;;;;23.92;11.77;;;4.10;56.10;;;2.25;62.57;103237.84;8218878;28;20047;-85
2022/01/11 16:11:20;;;;;;;26.35;12.13;;;4.00;56.00;;;2.11;63.03;103232.41;8194268;28;20045;-85
2022/01/11 16:15:45;;;;;;;26.10;12.52;;;4.00;56.40;;;2.16;63.36;103248.84;8191878;28;20031;-85
2022/01/11 16:20:08;;;;;;;25.90;13.13;;;4.00;56.10;;;2.03;63.18;103227.94;8216561;28;20049;-84
2022/01/11 16:24:29;;;;;;;26.52;13.20;;;4.00;56.10;;;1.94;62.95;103210.56;8181663;28;20045;-84
2022/01/11 16:28:57;;;;;;;22.52;11.45;;;3.90;56.10;;;1.99;62.81;103237.31;8206448;28;20031;-84
2022/01/11 16:33:19;;;;;;;22.95;11.82;;;4.00;56.20;;;2.00;63.12;103257.09;8209986;28;20493;-85
2022/01/11 16:37:41;;;;;;;25.30;12.43;;;3.90;56.20;;;1.97;63.18;103257.00;8193893;28;20035;-85
2022/01/11 16:46:52;;;;;;;19.00;11.15;;;3.80;56.20;;;1.73;63.25;103232.47;8192489;28;20050;-87
2022/01/11 16:51:14;;;;;;;22.70;11.45;;;3.80;56.20;;;1.86;62.84;103261.06;8201763;28;20039;-86
2022/01/11 16:55:39;;;;;;;25.75;12.35;;;3.70;56.20;;;1.81;63.13;103249.78;8180804;28;20058;-84
2022/01/11 17:00:02;;;;;;;25.43;12.37;;;3.70;56.20;;;1.84;62.87;103265.34;8196497;28;20037;-83
2022/01/11 17:04:24;;;;;;;26.60;11.93;;;3.70;56.20;;;1.85;63.08;103274.78;8181299;28;20425;-83
2022/01/11 17:08:46;;;;;;;21.02;11.88;;;3.70;56.20;;;1.77;62.94;103270.31;8181743;28;20034;-83
2022/01/11 17:13:10;;;;;;;26.98;13.32;;;3.60;56.10;;;1.73;63.07;103273.69;8197980;28;20128;-86
2022/01/11 17:17:33;;;;;;;27.20;13.40;;;3.50;56.00;;;1.62;62.85;103270.00;8195472;28;20039;-85
2022/01/11 17:21:59;;;;;;;29.77;13.70;;;3.50;55.90;;;1.55;62.66;103288.69;8194027;28;20562;-85
2022/01/11 17:26:24;;;;;;;28.15;13.82;;;3.40;55.90;;;1.47;63.09;103290.22;8173579;28;20031;-86
2022/01/11 17:30:45;;;;;;;30.65;14.30;;;3.40;55.90;;;1.30;62.88;103280.38;8197566;28;20400;-85
2022/01/11 17:35:07;;;;;;;26.40;13.05;;;3.30;55.90;;;1.25;62.59;103289.69;8203897;28;20057;-86
2022/01/11 17:39:30;;;;;;;26.38;13.05;;;3.20;55.80;;;1.17;62.71;103298.94;8199644;28;20039;-86
2022/01/11 17:43:52;;;;;;;28.15;13.70;;;3.10;55.80;;;1.05;62.84;103290.88;8183652;28;20411;-86
2022/01/11 17:48:14;;;;;;;29.25;15.30;;;3.00;55.80;;;0.82;62.77;103269.72;8191812;28;20042;-86
2022/01/11 17:52:37;;;;;;;33.30;14.27;;;2.90;55.70;;;0.92;62.53;103315.44;8201852;28;20043;-86
2022/01/11 17:57:04;;;;;;;27.65;14.18;;;2.80;55.70;;;0.81;62.66;103307.44;8195413;28;20045;-86
2022/01/11 18:01:27;;;;;;;29.77;15.40;;;2.70;55.70;;;0.72;62.66;103309.75;8174093;28;20496;-86
2022/01/11 18:05:50;;;;;;;28.83;13.75;;;2.60;55.70;;;0.63;63.04;103305.22;8174601;28;20039;-87
2022/01/11 18:10:11;;;;;;;26.70;12.60;;;2.40;55.70;;;0.51;62.75;103301.44;8191049;28;20496;-87
2022/01/11 18:14:33;;;;;;;27.67;12.10;;;2.60;55.90;;;0.43;62.95;103296.97;8177802;28;20420;-87
2022/01/11 18:18:56;;;;;;;26.73;13.23;;;2.60;56.00;;;0.47;62.46;103312.47;8172904;28;20039;-87
2022/01/11 18:23:18;;;;;;;25.45;11.68;;;2.30;55.80;;;0.24;62.57;103279.25;8163266;28;20035;-87
2022/01/11 18:27:40;;;;;;;21.60;11.20;;;2.20;55.80;;;0.35;62.65;103311.28;8156064;28;20044;-86
2022/01/11 18:32:05;;;;;;;26.75;11.52;;;2.20;55.80;;;0.15;62.56;103292.72;8184487;28;20408;-86
2022/01/11 18:36:27;;;;;;;19.75;9.88;;;2.10;55.80;;;0.21;62.51;103317.72;8171828;28;20039;-87